Latest Weather Observations for West Roebuck

IDW60801

Issued at 12:05 am WST Friday 28 November 2014 (issued every 30 minutes, with the page automatically refreshed every 10 minutes)

About weather observations | Map of weather stations | Latest weather observations for WA | Other Formats
Station Details ID: 003096 Name: WEST ROEBUCK Lat: -17.90 Lon: 122.31 Height: 32.0 m
Data from the previous 72 hours. | See also: Recent months for locations in Western Australia
Date/Time
WST
Temp
°C
App
Temp
°C
Dew
Point
Rel
Hum
%
Delta-T
°C
Wind Press
QNH
hPa
Press
MSL
hPa
Rain
since 9 am
mm
Dir
 
Spd
km/h
Gust
km/h
Spd
kts
Gust
kts
28/12:00am 25.4 - - - - ENE 6 9 3 5 - - 0.4
 
Date/Time
WST
Temp
°C
App
Temp
°C
Dew
Point
Rel
Hum
%
Delta-T
°C
Wind Press
QNH
hPa
Press
MSL
hPa
Rain
since 9 am
mm
Dir
 
Spd
km/h
Gust
km/h
Spd
kts
Gust
kts
27/11:30pm 25.8 - - - - E 9 13 5 7 - - 0.4
27/11:00pm 25.6 - - - - E 9 13 5 7 - - 0.4
27/10:30pm 25.8 - - - - E 7 13 4 7 - - 0.4
27/10:00pm 26.5 - - - - NE 7 9 4 5 - - 0.4
27/09:30pm 27.2 - - - - NNE 9 13 5 7 - - 0.4
27/09:00pm 27.0 - - - - NE 9 11 5 6 - - 0.4
27/08:30pm 27.1 - - - - ENE 7 9 4 5 - - 0.4
27/08:00pm 27.7 - - - - NNE 4 7 2 4 - - 0.4
27/07:30pm 28.7 - - - - NE 9 13 5 7 - - 0.4
27/07:00pm 28.9 - - - - NE 7 11 4 6 - - 0.4
27/06:30pm 29.3 - - - - E 4 13 2 7 - - 0.4
27/06:00pm 30.9 - - - - NNE 4 7 2 4 - - 0.4
27/05:30pm 31.7 - - - - NE 7 13 4 7 - - 0.4
27/05:00pm 31.8 - - - - E 19 24 10 13 - - 0.4
27/04:30pm 29.7 - - - - E 20 30 11 16 - - 0.2
27/04:00pm 28.1 - - - - ESE 28 44 15 24 - - 0.0
27/03:36pm 31.7 - - - - SE 28 46 15 25 - - 0.0
27/03:30pm 34.5 - - - - SW 7 11 4 6 - - 0.0
27/03:00pm 35.8 - - - - W 17 26 9 14 - - 0.0
27/02:30pm 35.9 - - - - W 19 28 10 15 - - 0.0
27/02:00pm 35.2 - - - - WNW 19 24 10 13 - - 0.0
27/01:30pm 36.9 - - - - W 20 32 11 17 - - 0.0
27/01:00pm 36.6 - - - - W 22 32 12 17 - - 0.0
27/12:30pm 36.7 - - - - WNW 20 32 11 17 - - 0.0
27/12:00pm 36.5 - - - - WNW 19 32 10 17 - - 0.0
27/11:30am 36.5 - - - - W 17 26 9 14 - - 0.0
27/11:00am 35.8 - - - - SW 19 28 10 15 - - 0.0
27/10:30am 36.4 - - - - W 15 32 8 17 - - 0.0
27/10:00am 35.9 - - - - WNW 15 24 8 13 - - 0.0
27/09:30am 35.3 - - - - W 13 19 7 10 - - 0.0
27/09:00am 34.5 - - - - W 11 22 6 12 - - 0.0
27/08:30am 33.9 - - - - WNW 13 20 7 11 - - 0.0
27/08:00am 33.3 - - - - W 11 19 6 10 - - 0.0
27/07:30am 32.7 - - - - WNW 9 17 5 9 - - 0.0
27/07:00am 31.5 - - - - WNW 11 17 6 9 - - 0.0
27/06:30am 30.5 - - - - WNW 9 13 5 7 - - 0.0
27/06:00am 28.4 - - - - CALM 0 0 0 0 - - 0.0
27/05:30am 27.0 - - - - NNW 6 9 3 5 - - 0.0
27/05:00am 27.0 - - - - N 7 9 4 5 - - 0.0
27/04:30am 27.0 - - - - N 9 9 5 5 - - 0.0
27/04:00am 27.0 - - - - NNW 7 9 4 5 - - 0.0
27/03:30am 27.1 - - - - N 7 9 4 5 - - 0.0
27/03:00am 27.4 - - - - CALM 0 0 0 0 - - 0.0
27/02:30am 27.4 - - - - CALM 0 0 0 0 - - 0.0
27/02:00am 27.5 - - - - CALM 0 0 0 0 - - 0.0
27/01:30am 27.9 - - - - W 4 7 2 4 - - 0.0
27/01:00am 28.3 - - - - W 7 9 4 5 - - 0.0
27/12:30am 28.7 - - - - W 9 13 5 7 - - 0.0
27/12:00am 28.9 - - - - W 9 11 5 6 - - 0.0
 
Date/Time
WST
Temp
°C
App
Temp
°C
Dew
Point
Rel
Hum
%
Delta-T
°C
Wind Press
QNH
hPa
Press
MSL
hPa
Rain
since 9 am
mm
Dir
 
Spd
km/h
Gust
km/h
Spd
kts
Gust
kts
26/11:30pm 29.0 - - - - WNW 9 13 5 7 - - 0.0
26/11:00pm 29.3 - - - - WNW 9 13 5 7 - - 0.0
26/10:30pm 29.6 - - - - WNW 13 17 7 9 - - 0.0
26/10:00pm 29.9 - - - - NW 13 20 7 11 - - 0.0
26/09:30pm 30.2 - - - - NW 17 24 9 13 - - 0.0
26/09:00pm 30.4 - - - - NNW 15 20 8 11 - - 0.0
26/08:30pm 30.7 - - - - NW 17 24 9 13 - - 0.0
26/08:00pm 31.0 - - - - NW 17 24 9 13 - - 0.0
26/07:30pm 31.0 - - - - NNW 15 20 8 11 - - 0.0
26/07:00pm 31.1 - - - - WNW 15 20 8 11 - - 0.0
26/06:30pm 31.9 - - - - W 13 19 7 10 - - 0.0
26/06:00pm 34.2 - - - - W 11 17 6 9 - - 0.0
26/05:57pm 34.6 - - - - W 11 17 6 9 - - 0.0
26/05:30pm 39.8 - - - - ESE 7 13 4 7 - - 0.0
26/05:00pm 40.9 - - - - ESE 9 19 5 10 - - 0.0
26/04:30pm 40.9 - - - - E 13 22 7 12 - - 0.0
26/04:00pm 41.0 - - - - ESE 13 20 7 11 - - 0.0
26/03:30pm 41.6 - - - - SE 11 24 6 13 - - 0.0
26/03:00pm 40.9 - - - - ESE 20 30 11 16 - - 0.0
26/02:30pm 41.5 - - - - E 17 32 9 17 - - 0.0
26/02:00pm 40.9 - - - - E 17 30 9 16 - - 0.0
26/01:30pm 40.4 - - - - E 20 33 11 18 - - 0.0
26/01:00pm 40.4 - - - - E 22 37 12 20 - - 0.0
26/12:30pm 39.4 - - - - ESE 24 35 13 19 - - 0.0
26/12:00pm 39.6 - - - - ESE 20 33 11 18 - - 0.0
26/11:30am 38.6 - - - - E 22 32 12 17 - - 0.0
26/11:00am 37.3 - - - - E 28 43 15 23 - - 0.0
26/10:30am 36.5 - - - - E 28 41 15 22 - - 0.0
26/10:00am 36.6 - - - - ESE 26 43 14 23 - - 0.0
26/09:30am 35.1 - - - - ESE 26 41 14 22 - - 0.0
26/09:08am 34.6 - - - - ESE 30 48 16 26 - - 0.0
26/09:00am 34.3 - - - - ESE 30 46 16 25 - - 0.0
26/08:58am 34.3 - - - - ESE 28 46 15 25 - - 0.0
26/08:30am 32.8 - - - - SE 28 41 15 22 - - 0.0
26/08:00am 30.8 - - - - ESE 24 41 13 22 - - 0.0
26/07:55am 30.6 - - - - ESE 28 46 15 25 - - 0.0
26/07:30am 30.5 - - - - ESE 28 44 15 24 - - 0.0
26/07:00am 29.4 - - - - SE 20 28 11 15 - - 0.0
26/06:30am 28.5 - - - - SSE 17 26 9 14 - - 0.0
26/06:00am 28.2 - - - - SSE 19 30 10 16 - - 0.0
26/05:30am 27.9 - - - - S 15 24 8 13 - - 0.0
26/05:00am 27.6 - - - - SSE 11 17 6 9 - - 0.0
26/04:30am 27.7 - - - - SSE 11 17 6 9 - - 0.0
26/04:00am 27.4 - - - - SSE 11 15 6 8 - - 0.0
26/03:30am 26.9 - - - - SE 9 9 5 5 - - 0.0
26/03:00am 27.3 - - - - SE 6 9 3 5 - - 0.0
26/02:30am 27.5 - - - - SE 9 9 5 5 - - 0.0
26/02:00am 27.6 - - - - SE 7 9 4 5 - - 0.0
26/01:30am 28.1 - - - - SSE 11 15 6 8 - - 0.0
26/01:00am 28.8 - - - - SE 13 20 7 11 - - 0.0
26/12:30am 28.7 - - - - S 9 13 5 7 - - 0.0
26/12:00am 29.1 - - - - S 9 17 5 9 - - 0.0
 
Date/Time
WST
Temp
°C
App
Temp
°C
Dew
Point
Rel
Hum
%
Delta-T
°C
Wind Press
QNH
hPa
Press
MSL
hPa
Rain
since 9 am
mm
Dir
 
Spd
km/h
Gust
km/h
Spd
kts
Gust
kts
25/11:30pm 29.5 - - - - SSW 13 24 7 13 - - 0.0
25/11:00pm 28.4 - - - - SSE 9 11 5 6 - - 0.0
25/10:30pm 28.4 - - - - SSW 7 9 4 5 - - 0.0
25/10:00pm 28.2 - - - - WSW 9 13 5 7 - - 0.0
25/09:30pm 28.3 - - - - W 9 11 5 6 - - 0.0
25/09:00pm 28.5 - - - - WNW 9 13 5 7 - - 0.0
25/08:30pm 28.8 - - - - W 9 13 5 7 - - 0.0
25/08:00pm 29.1 - - - - WNW 13 20 7 11 - - 0.0
25/07:30pm 29.2 - - - - WNW 9 13 5 7 - - 0.0
25/07:00pm 29.8 - - - - WNW 11 15 6 8 - - 0.0
25/06:30pm 30.5 - - - - WNW 13 20 7 11 - - 0.0
25/06:00pm 31.3 - - - - W 15 22 8 12 - - 0.0
25/05:30pm 32.7 - - - - W 20 24 11 13 - - 0.0
25/05:00pm 34.2 - - - - W 17 24 9 13 - - 0.0
25/04:30pm 35.3 - - - - W 17 24 9 13 - - 0.0
25/04:00pm 35.9 - - - - W 19 26 10 14 - - 0.0
25/03:30pm 37.4 - - - - W 20 26 11 14 - - 0.0
25/03:00pm 36.8 - - - - W 20 26 11 14 - - 0.0
25/02:30pm 38.2 - - - - WSW 20 28 11 15 - - 0.0
25/02:00pm 38.3 - - - - W 19 28 10 15 - - 0.0
25/01:30pm 39.1 - - - - SW 19 28 10 15 - - 0.0
25/01:00pm 39.3 - - - - E 9 17 5 9 - - 0.0
25/12:30pm 38.3 - - - - S 11 15 6 8 - - 0.0
25/12:00pm 36.2 - - - - WNW 9 13 5 7 - - 0.0
25/11:30am 34.9 - - - - W 11 17 6 9 - - 0.0
25/11:00am 34.9 - - - - SW 11 17 6 9 - - 0.0
25/10:30am 36.0 - - - - S 13 20 7 11 - - 0.0
25/10:00am 36.0 - - - - SSE 13 22 7 12 - - 0.0
25/09:30am 35.8 - - - - S 13 24 7 13 - - 0.0
25/09:00am 34.7 - - - - SSW 11 19 6 10 - - 0.0
25/08:30am 31.7 - - - - S 11 20 6 11 - - 0.0
25/08:00am 30.1 - - - - S 13 17 7 9 - - 0.0
25/07:30am 29.8 - - - - S 15 24 8 13 - - 0.0
25/07:00am 29.7 - - - - SSE 11 19 6 10 - - 0.0
25/06:30am 29.8 - - - - SSW 6 9 3 5 - - 0.0
25/06:00am 28.1 - - - - CALM 0 6 0 3 - - 0.0
25/05:30am 27.0 - - - - CALM 0 0 0 0 - - 0.0
25/05:00am 26.9 - - - - W 6 9 3 5 - - 0.0
25/04:30am 27.1 - - - - WSW 7 9 4 5 - - 0.0
25/04:00am 27.5 - - - - WSW 7 9 4 5 - - 0.0
25/03:30am 27.7 - - - - WSW 9 9 5 5 - - 0.0
25/03:00am 27.7 - - - - W 9 11 5 6 - - 0.0
25/02:30am 27.8 - - - - WNW 7 9 4 5 - - 0.0
25/02:00am 27.7 - - - - W 7 9 4 5 - - 0.0
25/01:30am 27.5 - - - - W 9 11 5 6 - - 0.0
25/01:00am 27.5 - - - - WSW 9 13 5 7 - - 0.0
25/12:30am 27.6 - - - - W 7 9 4 5 - - 0.0

Other Formats:

Comma delimited format used in spreadsheet applications
http://www.bom.gov.au/fwo/IDW60801/IDW60801.95204.axf

JavaScript Object Notation format (JSON) in row-major order
http://www.bom.gov.au/fwo/IDW60801/IDW60801.95204.json